createdAt,value
2018-07-03T00:00:40.000Z,21.63
2018-07-03T00:01:39.986Z,21.64
2018-07-03T00:02:39.948Z,21.64
2018-07-03T00:03:39.954Z,21.63
2018-07-03T00:04:39.881Z,21.53
2018-07-03T00:05:39.850Z,21.59
2018-07-03T00:06:39.825Z,21.64
2018-07-03T00:07:39.791Z,21.53
2018-07-03T00:08:39.766Z,21.46
2018-07-03T00:09:39.738Z,21.54
2018-07-03T00:10:39.698Z,21.54
2018-07-03T00:11:39.818Z,21.54
2018-07-03T00:12:39.639Z,21.54
2018-07-03T00:13:39.642Z,21.53
2018-07-03T00:14:39.802Z,21.57
2018-07-03T00:15:39.557Z,21.51
2018-07-03T00:16:39.523Z,21.51
2018-07-03T00:17:39.641Z,21.51
2018-07-03T00:18:39.467Z,21.56
2018-07-03T00:19:39.439Z,21.51
2018-07-03T00:20:39.401Z,21.50
2018-07-03T00:21:39.364Z,21.45
2018-07-03T00:22:39.346Z,21.54
2018-07-03T00:23:39.326Z,21.59
2018-07-03T00:24:39.291Z,21.54
2018-07-03T00:25:39.235Z,21.56
2018-07-03T00:26:39.233Z,21.51
2018-07-03T00:27:39.172Z,21.54
2018-07-03T00:28:39.149Z,21.56
2018-07-03T00:29:39.115Z,21.59
2018-07-03T00:30:39.094Z,21.54
2018-07-03T00:31:39.057Z,21.54
2018-07-03T00:32:39.072Z,21.46
2018-07-03T00:33:38.990Z,21.38
2018-07-03T00:34:38.959Z,21.41
2018-07-03T00:35:38.953Z,21.41
2018-07-03T00:36:38.969Z,21.46
2018-07-03T00:37:38.865Z,21.45
2018-07-03T00:38:38.832Z,21.50
2018-07-03T00:39:38.823Z,21.42
2018-07-03T00:40:38.773Z,21.42
2018-07-03T00:41:38.772Z,21.46
2018-07-03T00:42:38.727Z,21.46
2018-07-03T00:43:39.101Z,21.41
2018-07-03T00:44:38.677Z,21.42
2018-07-03T00:45:38.621Z,21.35
2018-07-03T00:46:38.604Z,21.46
2018-07-03T00:47:38.565Z,21.39
2018-07-03T00:48:38.530Z,21.29
2018-07-03T00:49:38.604Z,21.35
2018-07-03T00:50:38.473Z,21.34
2018-07-03T00:51:38.442Z,21.32
2018-07-03T00:52:38.408Z,21.30
2018-07-03T00:53:38.379Z,21.32
2018-07-03T00:54:38.378Z,21.41
2018-07-03T00:55:38.311Z,21.39
2018-07-03T00:56:38.289Z,21.44
2018-07-03T00:57:38.279Z,21.42
2018-07-03T00:58:38.216Z,21.45
2018-07-03T00:59:38.192Z,21.50
2018-07-03T01:00:38.271Z,21.48
2018-07-03T01:01:38.121Z,21.42
2018-07-03T01:02:38.096Z,21.44
2018-07-03T01:03:38.065Z,21.39
2018-07-03T01:04:38.048Z,21.34
2018-07-03T01:05:38.004Z,21.26
2018-07-03T01:06:38.101Z,21.30
2018-07-03T01:07:37.943Z,21.20
2018-07-03T01:08:37.937Z,21.19
2018-07-03T01:09:37.875Z,21.13
2018-07-03T01:10:37.864Z,21.05
2018-07-03T01:11:37.815Z,21.02
2018-07-03T01:12:37.795Z,21.05
2018-07-03T01:13:37.759Z,20.99
2018-07-03T01:14:37.730Z,21.01
2018-07-03T01:15:37.939Z,20.99
2018-07-03T01:16:37.666Z,20.91
2018-07-03T01:17:37.622Z,20.90
2018-07-03T01:18:37.619Z,20.95
2018-07-03T01:19:37.572Z,20.86
2018-07-03T01:20:37.547Z,20.98
2018-07-03T01:21:37.610Z,20.93
2018-07-03T01:22:37.481Z,20.95
2018-07-03T01:23:37.479Z,20.91
2018-07-03T01:24:37.431Z,20.90
2018-07-03T01:25:37.385Z,20.87
2018-07-03T01:26:37.363Z,20.90
2018-07-03T01:27:37.327Z,20.91
2018-07-03T01:28:37.288Z,20.89
2018-07-03T01:29:37.258Z,20.84
2018-07-03T01:30:37.317Z,20.84
2018-07-03T01:31:37.195Z,20.71
2018-07-03T01:32:37.165Z,20.74
2018-07-03T01:33:37.128Z,20.72
2018-07-03T01:34:37.103Z,20.77
2018-07-03T01:35:37.074Z,20.89
2018-07-03T01:36:37.042Z,20.83
2018-07-03T01:37:37.008Z,20.90
2018-07-03T01:38:36.977Z,21.04
2018-07-03T01:39:36.944Z,21.06
2018-07-03T01:40:36.918Z,21.02
2018-07-03T01:41:36.891Z,21.04
2018-07-03T01:42:36.869Z,20.98
2018-07-03T01:43:36.827Z,21.08
2018-07-03T01:44:36.792Z,21.13
2018-07-03T01:45:36.757Z,21.11
2018-07-03T01:46:36.729Z,21.16
2018-07-03T01:47:37.050Z,21.14
2018-07-03T01:48:36.662Z,21.19
2018-07-03T01:49:36.636Z,21.02
2018-07-03T01:50:36.641Z,21.04
2018-07-03T01:51:36.590Z,21.01
2018-07-03T01:52:36.536Z,21.01
2018-07-03T01:53:36.629Z,20.95
2018-07-03T01:54:36.472Z,21.04
2018-07-03T01:55:36.459Z,21.04
2018-07-03T01:56:36.421Z,20.93
2018-07-03T01:57:36.403Z,20.91
2018-07-03T01:58:36.366Z,20.91
2018-07-03T01:59:36.329Z,20.77
2018-07-03T02:00:36.304Z,20.90
2018-07-03T02:01:36.259Z,20.89
2018-07-03T02:02:36.226Z,20.86
2018-07-03T02:03:36.206Z,20.80
2018-07-03T02:04:36.170Z,20.84
2018-07-03T02:05:36.141Z,20.87
2018-07-03T02:06:36.152Z,20.84
2018-07-03T02:07:36.081Z,20.80
2018-07-03T02:08:36.044Z,20.76
2018-07-03T02:09:36.019Z,20.69
2018-07-03T02:10:35.980Z,20.65
2018-07-03T02:11:35.944Z,20.65
2018-07-03T02:12:35.915Z,20.64
2018-07-03T02:13:35.878Z,20.64
2018-07-03T02:14:35.873Z,20.58
2018-07-03T02:15:35.821Z,20.61
2018-07-03T02:16:35.809Z,20.61
2018-07-03T02:17:35.756Z,20.64
2018-07-03T02:18:35.745Z,20.56
2018-07-03T02:19:35.940Z,20.51
2018-07-03T02:20:35.735Z,20.62
2018-07-03T02:21:35.645Z,20.58
2018-07-03T02:22:35.608Z,20.56
2018-07-03T02:23:35.562Z,20.62
2018-07-03T02:24:35.532Z,20.51
2018-07-03T02:25:35.601Z,20.54
2018-07-03T02:26:35.504Z,20.56
2018-07-03T02:27:35.446Z,20.51
2018-07-03T02:28:35.416Z,20.53
2018-07-03T02:29:35.395Z,20.53
2018-07-03T02:30:35.371Z,20.42
2018-07-03T02:31:35.310Z,20.41
2018-07-03T02:32:35.281Z,20.39
2018-07-03T02:33:35.281Z,20.33
2018-07-03T02:34:35.218Z,20.41
2018-07-03T02:36:35.157Z,20.20
2018-07-03T02:37:35.125Z,20.23
2018-07-03T02:38:35.088Z,20.25
2018-07-03T02:39:35.056Z,20.21
2018-07-03T02:40:35.033Z,20.20
2018-07-03T02:41:35.006Z,20.12
2018-07-03T02:42:34.966Z,20.15
2018-07-03T02:43:34.954Z,20.16
2018-07-03T02:44:34.898Z,20.15
2018-07-03T02:45:34.867Z,20.16
2018-07-03T02:46:34.844Z,20.18
2018-07-03T02:47:34.838Z,20.13
2018-07-03T02:48:34.781Z,20.13
2018-07-03T02:49:34.754Z,20.09
2018-07-03T02:50:34.711Z,20.10
2018-07-03T02:51:34.825Z,20.06
2018-07-03T02:52:34.667Z,20.13
2018-07-03T02:53:34.615Z,20.13
2018-07-03T02:54:34.585Z,20.10
2018-07-03T02:55:34.555Z,20.16
2018-07-03T02:56:34.525Z,20.16
2018-07-03T02:57:34.695Z,20.06
2018-07-03T02:58:34.462Z,20.08
2018-07-03T02:59:34.422Z,20.05
2018-07-03T03:00:34.401Z,20.18
2018-07-03T03:01:34.357Z,20.03
2018-07-03T03:02:34.328Z,20.02
2018-07-03T03:03:34.301Z,20.09
2018-07-03T03:04:34.262Z,20.08
2018-07-03T03:05:34.233Z,20.03
2018-07-03T03:06:34.202Z,20.00
2018-07-03T03:07:34.178Z,20.02
2018-07-03T03:08:34.140Z,20.08
2018-07-03T03:09:34.108Z,20.06
2018-07-03T03:10:34.073Z,20.00
2018-07-03T03:11:34.042Z,20.06
2018-07-03T03:12:34.016Z,20.03
2018-07-03T03:13:34.067Z,20.05
2018-07-03T03:14:33.952Z,19.94
2018-07-03T03:15:33.922Z,19.95
2018-07-03T03:16:33.885Z,19.88
2018-07-03T03:17:33.854Z,19.88
2018-07-03T03:18:33.827Z,19.90
2018-07-03T03:19:33.787Z,19.98
2018-07-03T03:20:33.758Z,20.02
2018-07-03T03:21:33.814Z,20.00
2018-07-03T03:22:33.697Z,20.10
2018-07-03T03:23:33.764Z,20.09
2018-07-03T03:24:33.630Z,20.05
2018-07-03T03:25:33.595Z,20.08
2018-07-03T03:26:33.564Z,20.08
2018-07-03T03:27:33.529Z,20.09
2018-07-03T03:28:33.500Z,20.13
2018-07-03T03:29:33.470Z,20.08
2018-07-03T03:30:33.434Z,20.15
2018-07-03T03:31:33.408Z,20.09
2018-07-03T03:32:33.369Z,20.10
2018-07-03T03:33:33.391Z,20.15
2018-07-03T03:34:33.307Z,20.18
2018-07-03T03:35:33.270Z,20.03
2018-07-03T03:36:33.240Z,20.06
2018-07-03T03:37:33.217Z,20.13
2018-07-03T03:38:33.183Z,20.08
2018-07-03T03:39:33.150Z,20.09
2018-07-03T03:40:33.119Z,20.15
2018-07-03T03:41:33.088Z,20.05
2018-07-03T03:42:33.048Z,20.06
2018-07-03T03:43:33.022Z,19.94
2018-07-03T03:44:32.987Z,19.95
2018-07-03T03:45:32.954Z,19.91
2018-07-03T03:46:32.920Z,19.88
2018-07-03T03:47:32.896Z,19.86
2018-07-03T03:48:32.858Z,19.83
2018-07-03T03:49:32.827Z,19.78
2018-07-03T03:50:32.793Z,19.80
2018-07-03T03:51:32.760Z,19.72
2018-07-03T03:52:32.728Z,19.68
2018-07-03T03:53:32.701Z,19.68
2018-07-03T03:54:33.021Z,19.68
2018-07-03T03:55:32.634Z,19.66
2018-07-03T03:56:32.612Z,19.73
2018-07-03T03:57:32.575Z,19.75
2018-07-03T03:58:32.534Z,19.76
2018-07-03T03:59:32.505Z,19.70
2018-07-03T04:00:32.579Z,19.69
2018-07-03T04:01:32.446Z,19.68
2018-07-03T04:02:32.409Z,19.68
2018-07-03T04:03:32.383Z,19.69
2018-07-03T04:04:32.350Z,19.69
2018-07-03T04:05:32.325Z,19.69
2018-07-03T04:06:32.278Z,19.72
2018-07-03T04:07:32.247Z,19.68
2018-07-03T04:08:32.217Z,19.69
2018-07-03T04:09:32.185Z,19.79
2018-07-03T04:10:32.157Z,19.69
2018-07-03T04:11:32.124Z,19.73
2018-07-03T04:12:32.086Z,19.70
2018-07-03T04:13:32.054Z,19.72
2018-07-03T04:14:32.022Z,19.72
2018-07-03T04:15:31.990Z,19.72
2018-07-03T04:16:32.008Z,19.72
2018-07-03T04:17:31.937Z,19.68
2018-07-03T04:18:31.902Z,19.76
2018-07-03T04:19:31.863Z,19.72
2018-07-03T04:20:31.841Z,19.69
2018-07-03T04:21:31.806Z,19.73
2018-07-03T04:22:31.767Z,19.66
2018-07-03T04:23:31.740Z,19.69
2018-07-03T04:24:31.711Z,19.55
2018-07-03T04:25:31.672Z,19.51
2018-07-03T04:26:31.638Z,19.55
2018-07-03T04:27:31.603Z,19.57
2018-07-03T04:28:31.592Z,19.63
2018-07-03T04:29:31.545Z,19.61
2018-07-03T04:30:31.507Z,19.60
2018-07-03T04:31:31.481Z,19.63
2018-07-03T04:32:31.458Z,19.60
2018-07-03T04:33:31.408Z,19.55
2018-07-03T04:34:31.379Z,19.58
2018-07-03T04:35:31.351Z,19.53
2018-07-03T04:36:31.316Z,19.54
2018-07-03T04:37:31.283Z,19.60
2018-07-03T04:38:31.254Z,19.51
2018-07-03T04:39:31.219Z,19.51
2018-07-03T04:40:31.197Z,19.51
2018-07-03T04:41:31.218Z,19.51
2018-07-03T04:42:31.123Z,19.48
2018-07-03T04:43:31.087Z,19.53
2018-07-03T04:44:31.062Z,19.50
2018-07-03T04:45:31.027Z,19.40
2018-07-03T04:46:30.993Z,19.42
2018-07-03T04:47:30.958Z,19.38
2018-07-03T04:48:30.927Z,19.42
2018-07-03T04:49:30.892Z,19.43
2018-07-03T04:50:30.875Z,19.46
2018-07-03T04:51:30.857Z,19.38
2018-07-03T04:52:30.799Z,19.43
2018-07-03T04:53:30.821Z,19.36
2018-07-03T04:54:30.731Z,19.43
2018-07-03T04:55:30.700Z,19.40
2018-07-03T04:56:30.667Z,19.35
2018-07-03T04:57:30.634Z,19.43
2018-07-03T04:58:30.603Z,19.42
2018-07-03T04:59:30.575Z,19.38
2018-07-03T05:00:30.547Z,19.43
2018-07-03T05:01:30.506Z,19.39
2018-07-03T05:02:30.471Z,19.43
2018-07-03T05:03:30.446Z,19.33
2018-07-03T05:04:30.409Z,19.43
2018-07-03T05:05:30.381Z,19.33
2018-07-03T05:06:30.351Z,19.32
2018-07-03T05:07:30.308Z,19.25
2018-07-03T05:08:30.282Z,19.18
2018-07-03T05:09:30.248Z,19.23
2018-07-03T05:10:30.219Z,19.18
2018-07-03T05:11:30.181Z,19.13
2018-07-03T05:12:30.151Z,19.13
2018-07-03T05:13:30.119Z,19.01
2018-07-03T05:14:30.086Z,19.05
2018-07-03T05:15:30.055Z,19.01
2018-07-03T05:16:30.020Z,19.10
2018-07-03T05:17:30.043Z,19.05
2018-07-03T05:18:29.953Z,19.14
2018-07-03T05:19:29.924Z,19.14
2018-07-03T05:20:29.890Z,19.08
2018-07-03T05:21:29.859Z,19.11
2018-07-03T05:22:29.825Z,19.13
2018-07-03T05:23:29.798Z,19.08
2018-07-03T05:24:29.958Z,19.10
2018-07-03T05:25:29.728Z,19.11
2018-07-03T05:26:29.699Z,19.15
2018-07-03T05:27:29.677Z,19.02
2018-07-03T05:28:29.630Z,19.10
2018-07-03T05:29:29.603Z,19.06
2018-07-03T05:30:29.765Z,19.06
2018-07-03T05:31:29.546Z,19.13
2018-07-03T05:32:29.507Z,19.11
2018-07-03T05:33:29.470Z,19.17
2018-07-03T05:34:29.463Z,19.06
2018-07-03T05:35:29.407Z,19.10
2018-07-03T05:36:29.382Z,19.10
2018-07-03T05:37:29.342Z,19.08
2018-07-03T05:38:29.311Z,19.01
2018-07-03T05:39:29.275Z,18.98
2018-07-03T05:40:29.238Z,18.90
2018-07-03T05:41:29.208Z,18.98
2018-07-03T05:42:29.175Z,18.95
2018-07-03T05:43:29.160Z,18.82
2018-07-03T05:44:29.113Z,18.86
2018-07-03T05:45:29.078Z,18.87
2018-07-03T05:46:29.159Z,18.91
2018-07-03T05:47:29.013Z,18.87
2018-07-03T05:48:28.978Z,18.95
2018-07-03T05:49:28.947Z,18.94
2018-07-03T05:50:28.911Z,18.92
2018-07-03T05:51:28.879Z,18.94
2018-07-03T05:52:28.847Z,18.92
2018-07-03T05:53:28.819Z,18.82
2018-07-03T05:54:28.780Z,18.91
2018-07-03T05:55:28.753Z,18.94
2018-07-03T05:56:28.873Z,18.91
2018-07-03T05:57:28.684Z,18.91
2018-07-03T05:58:28.652Z,18.95
2018-07-03T05:59:28.619Z,18.94
2018-07-03T06:00:28.589Z,18.92
2018-07-03T06:01:28.551Z,18.95
2018-07-03T06:02:28.519Z,18.90
2018-07-03T06:03:28.489Z,18.82
2018-07-03T06:04:28.458Z,18.83
2018-07-03T06:05:28.431Z,18.84
2018-07-03T06:06:28.639Z,18.86
2018-07-03T06:07:28.363Z,18.86
2018-07-03T06:08:28.331Z,18.90
2018-07-03T06:09:28.300Z,18.87
2018-07-03T06:10:28.259Z,18.80
2018-07-03T06:11:28.226Z,18.80
2018-07-03T06:12:28.195Z,18.82
2018-07-03T06:13:28.160Z,18.74
2018-07-03T06:14:28.125Z,18.84
2018-07-03T06:15:28.104Z,18.83
2018-07-03T06:16:28.060Z,18.74
2018-07-03T06:17:28.029Z,18.80
2018-07-03T06:18:27.995Z,18.73
2018-07-03T06:19:27.964Z,18.80
2018-07-03T06:20:27.935Z,18.68
2018-07-03T06:21:27.896Z,18.70
2018-07-03T06:22:28.022Z,18.77
2018-07-03T06:23:27.834Z,18.74
2018-07-03T06:24:27.799Z,18.83
2018-07-03T06:25:27.769Z,18.70
2018-07-03T06:26:27.731Z,18.68
2018-07-03T06:27:27.703Z,18.67
2018-07-03T06:28:27.666Z,18.73
2018-07-03T06:29:27.632Z,18.62
2018-07-03T06:30:27.601Z,18.73
2018-07-03T06:31:27.566Z,18.79
2018-07-03T06:32:27.539Z,18.61
2018-07-03T06:33:27.501Z,18.67
2018-07-03T06:34:27.468Z,18.70
2018-07-03T06:35:27.440Z,18.70
2018-07-03T06:36:27.405Z,18.64
2018-07-03T06:37:27.463Z,18.64
2018-07-03T06:38:27.357Z,18.61
2018-07-03T06:39:27.305Z,18.62
2018-07-03T06:40:27.275Z,18.74
2018-07-03T06:41:27.239Z,18.73
2018-07-03T06:42:27.202Z,18.74
2018-07-03T06:43:27.174Z,18.70
2018-07-03T06:44:27.140Z,18.67
2018-07-03T06:45:27.109Z,18.67
2018-07-03T06:46:27.073Z,18.67
2018-07-03T06:47:27.259Z,18.77
2018-07-03T06:48:27.006Z,18.68
2018-07-03T06:49:26.976Z,18.74
2018-07-03T06:50:26.940Z,18.68
2018-07-03T06:51:27.039Z,18.59
2018-07-03T06:52:26.883Z,18.73
2018-07-03T06:53:26.847Z,18.62
2018-07-03T06:54:27.058Z,18.64
2018-07-03T06:55:26.782Z,18.65
2018-07-03T06:56:26.744Z,18.62
2018-07-03T06:57:26.713Z,18.54
2018-07-03T06:58:26.678Z,18.59
2018-07-03T06:59:26.673Z,18.54
2018-07-03T07:00:26.711Z,18.62
2018-07-03T07:01:26.579Z,18.58
2018-07-03T07:02:26.547Z,18.54
2018-07-03T07:03:26.512Z,18.61
2018-07-03T07:04:26.479Z,18.59
2018-07-03T07:05:26.448Z,18.59
2018-07-03T07:06:26.413Z,18.57
2018-07-03T07:07:26.387Z,18.57
2018-07-03T07:08:26.358Z,18.59
2018-07-03T07:09:26.360Z,18.58
2018-07-03T07:10:26.289Z,18.57
2018-07-03T07:11:26.247Z,18.50
2018-07-03T07:12:26.225Z,18.50
2018-07-03T07:13:26.186Z,18.57
2018-07-03T07:14:26.149Z,18.59
2018-07-03T07:15:26.123Z,18.55
2018-07-03T07:16:26.083Z,18.54
2018-07-03T07:17:26.049Z,18.58
2018-07-03T07:18:26.023Z,18.49
2018-07-03T07:19:25.988Z,18.42
2018-07-03T07:21:25.917Z,18.40
2018-07-03T07:22:25.896Z,18.49
2018-07-03T07:23:25.856Z,18.49
2018-07-03T07:24:25.820Z,18.42
2018-07-03T07:25:25.785Z,18.44
2018-07-03T07:26:25.753Z,18.40
2018-07-03T07:27:25.722Z,18.49
2018-07-03T07:28:25.694Z,18.44
2018-07-03T07:29:25.653Z,18.55
2018-07-03T07:31:25.590Z,18.50
2018-07-03T07:32:25.560Z,18.50
2018-07-03T07:33:25.520Z,18.43
2018-07-03T07:34:25.505Z,18.50
2018-07-03T07:35:25.453Z,18.47
2018-07-03T07:36:25.422Z,18.46
2018-07-03T07:37:25.387Z,18.46
2018-07-03T07:38:25.365Z,18.47
2018-07-03T07:39:25.325Z,18.46
2018-07-03T07:40:25.289Z,18.36
2018-07-03T07:41:25.261Z,18.34
2018-07-03T07:42:25.221Z,18.31
2018-07-03T07:43:25.191Z,18.28
2018-07-03T07:44:25.158Z,18.40
2018-07-03T07:45:25.123Z,18.33
2018-07-03T07:47:25.115Z,18.34
2018-07-03T07:48:25.033Z,18.29
2018-07-03T07:49:24.995Z,18.33
2018-07-03T07:50:25.006Z,18.31
2018-07-03T07:51:24.927Z,18.31
2018-07-03T07:52:24.991Z,18.46
2018-07-03T07:53:24.866Z,18.46
2018-07-03T07:54:24.829Z,18.33
2018-07-03T07:55:24.792Z,18.33
2018-07-03T07:56:24.804Z,18.40
2018-07-03T07:57:24.747Z,18.43
2018-07-03T07:58:25.029Z,18.43
2018-07-03T07:59:24.659Z,18.52
2018-07-03T08:00:24.627Z,18.54
2018-07-03T08:01:24.591Z,18.54
2018-07-03T08:02:24.558Z,18.57
2018-07-03T08:03:24.527Z,18.50
2018-07-03T08:04:24.500Z,18.59
2018-07-03T08:05:24.462Z,18.59
2018-07-03T08:06:24.426Z,18.59
2018-07-03T08:07:24.393Z,18.58
2018-07-03T08:08:24.360Z,18.50
2018-07-03T08:09:24.329Z,18.55
2018-07-03T08:10:24.294Z,18.57
2018-07-03T08:11:24.272Z,18.49
2018-07-03T08:12:24.228Z,18.59
2018-07-03T08:13:24.274Z,18.55
2018-07-03T08:14:24.181Z,18.57
2018-07-03T08:15:24.130Z,18.57
2018-07-03T08:16:24.097Z,18.55
2018-07-03T08:17:24.063Z,18.54
2018-07-03T08:18:24.031Z,18.57
2018-07-03T08:19:24.000Z,18.70
2018-07-03T08:20:23.967Z,18.77
2018-07-03T08:21:23.931Z,18.67
2018-07-03T08:22:23.895Z,18.70
2018-07-03T08:23:23.863Z,18.62
2018-07-03T08:24:23.831Z,18.62
2018-07-03T08:25:23.798Z,18.74
2018-07-03T08:26:23.870Z,18.65
2018-07-03T08:27:23.726Z,18.64
2018-07-03T08:28:23.695Z,18.62
2018-07-03T08:29:23.662Z,18.65
2018-07-03T08:30:23.633Z,18.67
2018-07-03T08:32:23.597Z,18.68
2018-07-03T08:33:23.530Z,18.68
2018-07-03T08:34:23.501Z,18.65
2018-07-03T08:35:23.467Z,18.57
2018-07-03T08:36:23.437Z,18.57
2018-07-03T08:37:23.396Z,18.55
2018-07-03T08:38:23.365Z,18.54
2018-07-03T08:39:23.332Z,18.46
2018-07-03T08:40:23.296Z,18.46
2018-07-03T08:41:23.264Z,18.42
2018-07-03T08:42:23.261Z,18.44
2018-07-03T08:43:23.197Z,18.43
2018-07-03T08:44:23.166Z,18.46
2018-07-03T08:45:23.133Z,18.50
2018-07-03T08:46:23.103Z,18.42
2018-07-03T08:47:23.071Z,18.47
2018-07-03T08:48:23.090Z,18.42
2018-07-03T08:49:22.996Z,18.43
2018-07-03T08:50:22.965Z,18.47
2018-07-03T08:51:22.936Z,18.44
2018-07-03T08:52:22.901Z,18.40
2018-07-03T08:53:22.971Z,18.42
2018-07-03T08:54:22.834Z,18.37
2018-07-03T08:55:22.801Z,18.33
2018-07-03T08:56:22.768Z,18.46
2018-07-03T08:57:22.757Z,18.47
2018-07-03T08:58:22.778Z,18.47
2018-07-03T08:59:22.969Z,18.40
2018-07-03T09:00:22.640Z,18.40
2018-07-03T09:01:22.600Z,18.46
2018-07-03T09:02:22.570Z,18.44
2018-07-03T09:03:22.537Z,18.44
2018-07-03T09:04:22.751Z,18.54
2018-07-03T09:05:22.468Z,18.52
2018-07-03T09:06:22.439Z,18.52
2018-07-03T09:07:22.403Z,18.55
2018-07-03T09:08:22.379Z,18.57
2018-07-03T09:09:22.335Z,18.54
2018-07-03T09:10:22.302Z,18.54
2018-07-03T09:11:22.272Z,18.64
2018-07-03T09:12:22.238Z,18.59
2018-07-03T09:13:22.202Z,18.58
2018-07-03T09:14:22.174Z,18.58
2018-07-03T09:15:22.141Z,18.59
2018-07-03T09:16:22.103Z,18.62
2018-07-03T09:17:22.069Z,18.64
2018-07-03T09:18:22.039Z,18.50
2018-07-03T09:19:22.003Z,18.58
2018-07-03T09:20:21.971Z,18.54
2018-07-03T09:21:21.940Z,18.62
2018-07-03T09:22:21.904Z,18.52
2018-07-03T09:23:21.872Z,18.65
2018-07-03T09:24:21.854Z,18.65
2018-07-03T09:25:21.822Z,18.59
2018-07-03T09:26:21.770Z,18.64
2018-07-03T09:27:21.752Z,18.54
2018-07-03T09:28:21.728Z,18.55
2018-07-03T09:29:21.671Z,18.55
2018-07-03T09:30:21.646Z,18.64
2018-07-03T09:31:21.607Z,18.58
2018-07-03T09:32:21.573Z,18.65
2018-07-03T09:33:21.537Z,18.55
2018-07-03T09:34:21.503Z,18.54
2018-07-03T09:35:21.676Z,18.57
2018-07-03T09:36:21.472Z,18.54
2018-07-03T09:37:21.404Z,18.59
2018-07-03T09:38:21.410Z,18.55
2018-07-03T09:39:21.347Z,18.58
2018-07-03T09:40:21.305Z,18.54
2018-07-03T09:41:21.273Z,18.55
2018-07-03T09:42:21.242Z,18.55
2018-07-03T09:43:21.207Z,18.54
2018-07-03T09:44:21.178Z,18.58
2018-07-03T09:45:21.143Z,18.55
2018-07-03T09:46:21.103Z,18.55
2018-07-03T09:47:21.075Z,18.57
2018-07-03T09:48:21.053Z,18.50
2018-07-03T09:49:21.005Z,18.50
2018-07-03T09:50:20.973Z,18.62
2018-07-03T09:51:21.140Z,18.68
2018-07-03T09:52:20.912Z,18.64
2018-07-03T09:53:20.873Z,18.58
2018-07-03T09:54:20.845Z,18.65
2018-07-03T09:55:20.810Z,18.61
2018-07-03T09:56:20.775Z,18.62
2018-07-03T09:57:20.852Z,18.73
2018-07-03T09:58:20.712Z,18.67
2018-07-03T09:59:20.707Z,18.64
2018-07-03T10:00:20.647Z,18.64
2018-07-03T10:01:20.613Z,18.74
2018-07-03T10:02:20.574Z,18.68
2018-07-03T10:03:20.545Z,18.73
2018-07-03T10:04:20.567Z,18.68
2018-07-03T10:05:20.482Z,18.77
2018-07-03T10:06:20.444Z,18.68
2018-07-03T10:07:20.409Z,18.67
2018-07-03T10:08:20.373Z,18.73
2018-07-03T10:09:20.351Z,18.67
2018-07-03T10:10:20.315Z,18.73
2018-07-03T10:11:20.277Z,18.65
2018-07-03T10:12:20.256Z,18.68
2018-07-03T10:13:20.219Z,18.62
2018-07-03T10:14:20.186Z,18.80
2018-07-03T10:15:20.143Z,18.72
2018-07-03T10:16:20.110Z,18.80
2018-07-03T10:17:20.080Z,18.83
2018-07-03T10:18:20.046Z,18.90
2018-07-03T10:19:20.013Z,18.95
2018-07-03T10:20:19.981Z,18.98
2018-07-03T10:21:19.950Z,19.05
2018-07-03T10:22:19.911Z,19.02
2018-07-03T10:23:19.884Z,19.13
2018-07-03T10:24:19.848Z,19.13
2018-07-03T10:25:19.816Z,19.10
2018-07-03T10:26:19.781Z,19.14
2018-07-03T10:27:19.754Z,19.14
2018-07-03T10:28:19.715Z,19.14
2018-07-03T10:29:19.682Z,19.15
2018-07-03T10:30:19.672Z,19.15
2018-07-03T10:31:19.655Z,19.13
2018-07-03T10:32:19.585Z,19.10
2018-07-03T10:33:19.564Z,19.23
2018-07-03T10:34:19.676Z,19.25
2018-07-03T10:35:19.490Z,19.25
2018-07-03T10:36:19.467Z,19.24
2018-07-03T10:37:19.423Z,19.24
2018-07-03T10:38:19.394Z,19.28
2018-07-03T10:39:19.368Z,19.38
2018-07-03T10:41:19.292Z,19.38
2018-07-03T10:42:19.264Z,19.46
2018-07-03T10:43:19.236Z,19.54
2018-07-03T10:44:19.205Z,19.58
2018-07-03T10:45:19.164Z,19.55
2018-07-03T10:46:19.133Z,19.50
2018-07-03T10:47:19.101Z,19.68
2018-07-03T10:48:19.077Z,19.76
2018-07-03T10:49:19.063Z,19.75
2018-07-03T10:50:19.180Z,19.69
2018-07-03T10:51:18.970Z,19.70
2018-07-03T10:52:18.939Z,19.83
2018-07-03T10:53:18.909Z,19.86
2018-07-03T10:54:18.875Z,19.95
2018-07-03T10:55:18.844Z,19.93
2018-07-03T10:56:19.161Z,19.93
2018-07-03T10:57:18.781Z,20.05
2018-07-03T10:58:18.744Z,20.06
2018-07-03T10:59:18.725Z,20.03
2018-07-03T11:00:18.683Z,20.20
2018-07-03T11:01:18.651Z,20.12
2018-07-03T11:02:18.848Z,20.09
2018-07-03T11:03:18.595Z,20.03
2018-07-03T11:04:18.575Z,20.16
2018-07-03T11:05:18.521Z,20.10
2018-07-03T11:06:18.492Z,20.12
2018-07-03T11:07:18.466Z,20.13
2018-07-03T11:08:18.430Z,20.23
2018-07-03T11:09:18.395Z,20.21
2018-07-03T11:10:18.365Z,20.24
2018-07-03T11:11:18.334Z,20.18
2018-07-03T11:12:18.303Z,20.33
2018-07-03T11:13:18.272Z,20.35
2018-07-03T11:14:18.240Z,20.43
2018-07-03T11:15:18.208Z,20.49
2018-07-03T11:16:18.178Z,20.49
2018-07-03T11:17:18.143Z,20.41
2018-07-03T11:18:18.109Z,20.41
2018-07-03T11:19:18.081Z,20.49
2018-07-03T11:20:18.090Z,20.53
2018-07-03T11:21:18.020Z,20.56
2018-07-03T11:22:18.008Z,20.50
2018-07-03T11:23:18.213Z,20.54
2018-07-03T11:24:17.923Z,20.59
2018-07-03T11:25:17.896Z,20.61
2018-07-03T11:26:17.890Z,20.64
2018-07-03T11:27:17.836Z,20.65
2018-07-03T11:28:17.797Z,20.74
2018-07-03T11:29:18.016Z,20.72
2018-07-03T11:30:17.744Z,20.72
2018-07-03T11:31:17.799Z,20.84
2018-07-03T11:32:17.704Z,20.79
2018-07-03T11:33:17.642Z,20.87
2018-07-03T11:34:17.616Z,20.83
2018-07-03T11:35:17.589Z,20.84
2018-07-03T11:36:17.555Z,20.93
2018-07-03T11:37:17.524Z,20.91
2018-07-03T11:38:17.489Z,21.06
2018-07-03T11:39:17.467Z,21.02
2018-07-03T11:40:17.444Z,21.14
2018-07-03T11:41:17.409Z,21.08
2018-07-03T11:42:17.368Z,21.11
2018-07-03T11:43:17.395Z,21.17
2018-07-03T11:44:17.314Z,21.23
2018-07-03T11:45:17.275Z,21.27
2018-07-03T11:46:17.240Z,21.27
2018-07-03T11:47:17.237Z,21.30
2018-07-03T11:48:17.193Z,21.27
2018-07-03T11:49:17.156Z,21.27
2018-07-03T11:50:17.122Z,21.30
2018-07-03T11:51:17.091Z,21.36
2018-07-03T11:52:17.064Z,21.32
2018-07-03T11:53:17.029Z,21.34
2018-07-03T11:54:16.999Z,21.39
2018-07-03T11:55:17.176Z,21.44
2018-07-03T11:56:16.944Z,21.48
2018-07-03T11:57:16.906Z,21.38
2018-07-03T11:58:16.882Z,21.50
2018-07-03T11:59:16.853Z,21.50
2018-07-03T12:00:16.825Z,21.59
2018-07-03T12:01:17.041Z,21.56
2018-07-03T12:02:16.759Z,21.60
2018-07-03T12:03:16.733Z,21.64
2018-07-03T12:04:16.739Z,21.63
2018-07-03T12:05:16.663Z,21.66
2018-07-03T12:06:16.639Z,21.63
2018-07-03T12:07:16.610Z,21.67
2018-07-03T12:08:16.576Z,21.74
2018-07-03T12:09:16.546Z,21.78
2018-07-03T12:10:16.519Z,22.74
2018-07-03T12:11:16.543Z,23.38
2018-07-03T12:12:16.464Z,23.72
2018-07-03T12:13:16.438Z,23.89
2018-07-03T12:14:16.395Z,23.98
2018-07-03T12:15:16.369Z,24.08
2018-07-03T12:16:16.338Z,24.23
2018-07-03T12:17:16.378Z,24.31
2018-07-03T12:18:16.293Z,24.38
2018-07-03T12:19:16.250Z,24.52
2018-07-03T12:20:16.215Z,24.53
2018-07-03T12:21:16.195Z,24.59
2018-07-03T12:22:16.158Z,24.50
2018-07-03T12:23:16.136Z,24.32
2018-07-03T12:24:16.110Z,24.26
2018-07-03T12:25:16.089Z,24.05
2018-07-03T12:26:16.053Z,24.07
2018-07-03T12:27:16.025Z,24.01
2018-07-03T12:28:16.150Z,24.08
2018-07-03T12:29:15.987Z,24.07
2018-07-03T12:30:15.938Z,24.02
2018-07-03T12:31:15.909Z,24.10
2018-07-03T12:32:15.880Z,24.20
2018-07-03T12:33:16.699Z,24.26
2018-07-03T12:34:16.385Z,24.26
2018-07-03T12:35:15.881Z,24.19
2018-07-03T12:36:15.785Z,24.08
2018-07-03T12:37:15.970Z,24.10
2018-07-03T12:38:15.841Z,24.20
2018-07-03T12:39:15.902Z,24.35
2018-07-03T12:40:15.827Z,24.20
2018-07-03T12:43:15.582Z,24.32
2018-07-03T12:44:15.589Z,24.26
2018-07-03T12:45:15.664Z,24.32
2018-07-03T12:46:15.773Z,24.26
2018-07-03T12:47:15.613Z,24.37
2018-07-03T12:48:15.762Z,24.37
2018-07-03T12:49:16.215Z,24.35
2018-07-03T12:50:15.520Z,24.34
2018-07-03T12:51:15.655Z,24.38
2018-07-03T12:52:15.588Z,24.47
2018-07-03T12:53:15.611Z,24.38
2018-07-03T12:54:15.352Z,24.45
2018-07-03T12:55:15.358Z,24.49
2018-07-03T12:56:15.470Z,24.49
2018-07-03T12:57:15.371Z,24.63
2018-07-03T12:58:15.284Z,24.73
2018-07-03T12:59:15.288Z,24.73
2018-07-03T13:00:15.256Z,24.82